Westgard — PDBQ — position and weather

sailwx.info

Track history (hours):
 
Tides and Currents Weather Stations Pressure Air Temp Water Temp Dewpoint Dewpoint Depression Visibility Wind Speed Wind Dir Waves Ship Positions

Westgard

Last reported at 2015-Aug-03 12:33 UTC. Time now 2015-Aug-03 13:06 UTC.
Position N 54°50' E 012°59'.

Length 89 m; draft 6.1 m.

Type: Ship. MMSI: 246457000.

Date/timePositionNaut miles runAvg speedWind from/ knotsBaromVisibWave heightAir tempDewpointWater temp
2015-Aug-03 12:33N 54°50' E 012°59'1110.8
2015-Aug-03 11:33N 54°53' E 013°17'1110.8
2015-Aug-03 10:33N 54°54' E 013°35'1110.8
2015-Aug-03 09:33N 54°54' E 013°54'1110.7
2015-Aug-03 08:33N 54°53' E 014°13'1010.5
2015-Aug-03 07:33N 54°53' E 014°31'1110.5
2015-Aug-03 06:33N 54°54' E 014°49'1110.6
2015-Aug-03 05:33N 54°54' E 015°08'1110.6
2015-Aug-03 04:33N 55°00' E 015°23'1110.9
2015-Aug-03 03:33N 55°07' E 015°38'1110.8
2015-Aug-03 02:32N 55°14' E 015°53'2310.9
2015-Aug-03 00:25N 55°28' E 016°25'2010.5
2015-Aug-02 22:32N 55°41' E 016°52'3410.4
2015-Aug-02 19:16N 56°01' E 017°41'710.6
2015-Aug-02 18:33N 56°06' E 017°51'  
2015-Jul-29 06:09N 59°27' E 020°02'  
2015-Jul-24 20:14N 57°21' E 017°46'810.5
2015-Jul-24 19:28N 57°14' E 017°40'  
Track history (hours):
 
Tides and Currents Weather Stations Pressure Air Temp Water Temp Dewpoint Dewpoint Depression Visibility Wind Speed Wind Dir Waves Ship Positions

Westgard

Last reported at 2015-Aug-03 12:33 UTC. Time now 2015-Aug-03 13:06 UTC.
Position N 54°50' E 012°59'.

Length 89 m; draft 6.1 m.

Type: Ship. MMSI: 246457000.

Date/timePositionNaut miles runAvg speedWind from/ knotsBaromVisibWave heightAir tempDewpointWater temp
2015-Aug-03 12:33N 54°50' E 012°59'1110.8
2015-Aug-03 11:33N 54°53' E 013°17'1110.8
2015-Aug-03 10:33N 54°54' E 013°35'1110.8
2015-Aug-03 09:33N 54°54' E 013°54'1110.7
2015-Aug-03 08:33N 54°53' E 014°13'1010.5
2015-Aug-03 07:33N 54°53' E 014°31'1110.5
2015-Aug-03 06:33N 54°54' E 014°49'1110.6
2015-Aug-03 05:33N 54°54' E 015°08'1110.6
2015-Aug-03 04:33N 55°00' E 015°23'1110.9
2015-Aug-03 03:33N 55°07' E 015°38'1110.8
2015-Aug-03 02:32N 55°14' E 015°53'2310.9
2015-Aug-03 00:25N 55°28' E 016°25'2010.5
2015-Aug-02 22:32N 55°41' E 016°52'3410.4
2015-Aug-02 19:16N 56°01' E 017°41'710.6
2015-Aug-02 18:33N 56°06' E 017°51'  
2015-Jul-29 06:09N 59°27' E 020°02'  
2015-Jul-24 20:14N 57°21' E 017°46'810.5
2015-Jul-24 19:28N 57°14' E 017°40'  

Dump ship's entire track history